Time;durP1;ratioP1;P1;durP2;ratioP2;P2;SDS_P1;SDS_P2;PMS_P1;PMS_P2;Temp;Humidity;BMP_temperature;BMP_pressure;BME280_temperature;BME280_humidity;BME280_pressure;Samples;Min_cycle;Max_cycle;Signal;HPM_P1;HPM_P2
2021/07/25 00:02:10;;;;;;;2.10;2.00;;;;;;;20.30;65.53;101798.53;5980885;29;20208;-76
2021/07/25 00:05:15;;;;;;;2.00;2.00;;;;;;;20.11;65.71;101799.94;5980117;29;20376;-76
2021/07/25 00:08:19;;;;;;;1.98;1.92;;;;;;;20.20;65.48;101790.06;5981142;29;20208;-76
2021/07/25 00:11:25;;;;;;;3.17;2.22;;;;;;;20.10;65.63;101793.56;5980011;29;20201;-76
2021/07/25 00:14:31;;;;;;;2.22;2.15;;;;;;;20.14;65.60;101796.63;5981089;29;20284;-76
2021/07/25 00:17:35;;;;;;;2.30;2.20;;;;;;;20.17;65.46;101801.66;5985407;29;20193;-76
2021/07/25 00:20:40;;;;;;;2.28;2.17;;;;;;;20.14;65.00;101794.69;5983770;29;20420;-76
2021/07/25 00:23:46;;;;;;;2.17;2.10;;;;;;;20.15;65.27;101806.63;5980908;29;20197;-76
2021/07/25 00:26:51;;;;;;;2.13;2.13;;;;;;;20.16;65.53;101803.59;5979874;29;20260;-76
2021/07/25 00:29:58;;;;;;;4.70;2.25;;;;;;;20.05;66.06;101800.97;5979451;29;20193;-76
2021/07/25 00:33:03;;;;;;;2.13;2.00;;;;;;;19.98;66.65;101806.66;5979036;29;20209;-76
2021/07/25 00:36:07;;;;;;;4.22;2.55;;;;;;;20.00;66.17;101810.03;5980584;29;20199;-76
2021/07/25 00:39:12;;;;;;;1.85;1.85;;;;;;;19.94;66.26;101803.59;5980138;29;20298;-76
2021/07/25 00:42:16;;;;;;;2.13;2.03;;;;;;;19.98;66.30;101801.13;5980577;29;20193;-76
2021/07/25 00:45:22;;;;;;;3.40;2.20;;;;;;;19.97;66.18;101805.84;5979238;29;20512;-76
2021/07/25 00:48:27;;;;;;;2.05;2.05;;;;;;;19.96;66.29;101806.94;5980184;29;20193;-76
2021/07/25 00:51:31;;;;;;;2.10;2.00;;;;;;;19.85;66.71;101812.59;5980235;29;20242;-76
2021/07/25 00:54:36;;;;;;;2.70;2.00;;;;;;;19.89;66.59;101809.06;5979010;29;20224;-76
2021/07/25 00:57:40;;;;;;;4.03;1.90;;;;;;;19.82;66.89;101808.38;5980151;29;20273;-76
2021/07/25 01:00:47;;;;;;;2.10;2.00;;;;;;;19.84;67.22;101809.00;5980255;29;20234;-75
2021/07/25 01:04:05;;;;;;;2.03;2.03;;;;;;;19.78;67.27;101812.75;5979849;29;20240;-76
2021/07/25 01:07:21;;;;;;;5.30;2.30;;;;;;;19.80;67.40;101810.56;5979845;29;20284;-76
2021/07/25 01:10:30;;;;;;;3.05;2.25;;;;;;;19.76;67.25;101812.19;5980043;29;20201;-76
2021/07/25 01:13:37;;;;;;;2.03;1.92;;;;;;;19.72;67.66;101807.41;5979724;29;20199;-74
2021/07/25 01:16:43;;;;;;;2.03;1.85;;;;;;;19.71;67.94;101812.13;5979915;29;20197;-75
2021/07/25 01:19:50;;;;;;;1.85;1.80;;;;;;;19.68;68.09;101818.16;5979256;29;20197;-75
2021/07/25 01:22:56;;;;;;;1.88;1.77;;;;;;;19.68;68.25;101817.31;5978699;29;20212;-75
2021/07/25 01:26:01;;;;;;;2.20;2.03;;;;;;;19.60;68.22;101818.56;5981897;29;20197;-74
2021/07/25 01:29:07;;;;;;;1.90;1.80;;;;;;;19.49;68.51;101813.97;5984959;29;20242;-76
2021/07/25 01:32:12;;;;;;;2.38;2.38;;;;;;;19.54;68.76;101825.09;5978787;29;20251;-76
2021/07/25 01:35:18;;;;;;;1.80;1.80;;;;;;;19.39;69.36;101819.34;5978609;29;20314;-75
2021/07/25 01:38:23;;;;;;;1.95;1.90;;;;;;;19.38;69.53;101827.91;5979372;29;20216;-76
2021/07/25 01:41:27;;;;;;;1.77;1.67;;;;;;;19.40;68.75;101815.50;5978498;29;20358;-76
2021/07/25 01:44:31;;;;;;;2.25;1.98;;;;;;;19.40;69.49;101820.19;5979830;29;20197;-75
2021/07/25 01:47:37;;;;;;;4.35;2.17;;;;;;;19.36;69.37;101819.81;5977985;29;20240;-75
2021/07/25 01:50:42;;;;;;;2.65;2.25;;;;;;;19.36;69.23;101836.44;5979717;29;20201;-76
2021/07/25 01:53:46;;;;;;;2.15;2.13;;;;;;;19.34;69.30;101835.81;5978586;29;20425;-75
2021/07/25 01:56:50;;;;;;;2.05;2.03;;;;;;;19.31;69.50;101834.41;5979599;29;20255;-75
2021/07/25 01:59:55;;;;;;;5.05;2.30;;;;;;;19.33;69.61;101836.94;5980706;29;20200;-75
2021/07/25 02:02:59;;;;;;;4.57;2.20;;;;;;;19.37;69.46;101827.06;5979171;29;20304;-75
2021/07/25 02:06:05;;;;;;;2.03;1.92;;;;;;;19.32;69.61;101830.56;5979620;29;20204;-75
2021/07/25 02:09:12;;;;;;;1.65;1.65;;;;;;;19.33;69.48;101832.25;5979532;29;20200;-75
2021/07/25 02:12:17;;;;;;;5.28;2.08;;;;;;;19.20;69.95;101828.94;5978195;29;20269;-76
2021/07/25 02:15:22;;;;;;;2.10;2.00;;;;;;;19.24;69.73;101841.19;5977374;29;20260;-76
2021/07/25 02:18:27;;;;;;;4.78;2.17;;;;;;;19.12;70.26;101834.88;5979788;29;20260;-76
2021/07/25 02:21:33;;;;;;;2.10;2.10;;;;;;;19.09;70.52;101835.38;5996444;29;20276;-76
2021/07/25 02:24:37;;;;;;;2.10;2.10;;;;;;;19.20;69.87;101842.78;5982710;29;20260;-75
2021/07/25 02:27:41;;;;;;;2.33;2.10;;;;;;;19.23;69.33;101842.28;5982561;29;20197;-77
2021/07/25 02:30:45;;;;;;;1.90;1.90;;;;;;;19.21;69.60;101849.97;5982261;29;20196;-76
2021/07/25 02:33:49;;;;;;;1.95;1.95;;;;;;;19.21;69.64;101845.28;5982579;29;20229;-76
2021/07/25 02:36:55;;;;;;;2.20;2.15;;;;;;;19.17;69.74;101846.88;5989643;29;20227;-75
2021/07/25 02:39:59;;;;;;;2.13;2.05;;;;;;;19.12;69.74;101851.50;5981790;29;20193;-76
2021/07/25 02:43:03;;;;;;;5.53;1.90;;;;;;;19.10;69.38;101843.44;5981186;29;20347;-76
2021/07/25 02:46:09;;;;;;;2.00;1.90;;;;;;;19.10;69.45;101842.59;5982777;29;20203;-76
2021/07/25 02:49:15;;;;;;;2.20;2.20;;;;;;;19.12;69.37;101851.50;5982758;29;20193;-75
2021/07/25 02:52:21;;;;;;;2.20;2.10;;;;;;;19.14;69.41;101849.31;5982086;29;20234;-75
2021/07/25 02:55:26;;;;;;;2.10;2.00;;;;;;;19.02;69.61;101848.53;5982463;29;20221;-76
2021/07/25 02:58:30;;;;;;;1.95;1.88;;;;;;;19.11;69.12;101847.03;5982994;29;20235;-76
2021/07/25 03:01:35;;;;;;;1.92;1.92;;;;;;;19.09;69.32;101840.91;5982693;29;20193;-76
2021/07/25 03:04:41;;;;;;;2.08;1.85;;;;;;;19.11;68.91;101850.63;5982316;29;20244;-76
2021/07/25 03:07:46;;;;;;;1.80;1.80;;;;;;;19.08;69.12;101842.03;5981633;29;20200;-76
2021/07/25 03:10:50;;;;;;;2.10;1.90;;;;;;;19.10;68.88;101848.13;5981243;29;20250;-76
2021/07/25 03:13:55;;;;;;;2.40;2.03;;;;;;;19.08;69.13;101862.19;5982095;29;20193;-75
2021/07/25 03:16:59;;;;;;;1.90;1.90;;;;;;;19.00;69.38;101851.53;5982403;29;20221;-76
2021/07/25 03:20:04;;;;;;;3.03;2.10;;;;;;;19.08;68.74;101850.31;5980983;29;20209;-76
2021/07/25 03:23:09;;;;;;;2.33;2.22;;;;;;;19.10;68.85;101861.97;5983037;29;20193;-76
2021/07/25 03:26:13;;;;;;;2.33;1.77;;;;;;;18.97;68.73;101859.50;5981844;29;20270;-76
2021/07/25 03:29:18;;;;;;;2.38;2.13;;;;;;;19.05;67.99;101861.88;5980962;29;20370;-76
2021/07/25 03:32:22;;;;;;;2.28;2.17;;;;;;;19.11;68.58;101861.72;5981202;29;20193;-76
2021/07/25 03:35:27;;;;;;;2.28;2.17;;;;;;;19.08;67.99;101866.91;5981978;29;20228;-76
2021/07/25 03:38:32;;;;;;;2.60;2.50;;;;;;;19.05;68.45;101870.16;5980239;29;20253;-76
2021/07/25 03:41:37;;;;;;;2.22;2.13;;;;;;;19.17;68.25;101865.41;5980687;29;20499;-75
2021/07/25 03:44:42;;;;;;;2.63;2.42;;;;;;;19.18;68.52;101862.38;5985009;29;20232;-74
2021/07/25 03:47:46;;;;;;;2.83;2.67;;;;;;;19.15;68.61;101873.13;5984760;29;20197;-75
2021/07/25 03:50:50;;;;;;;2.58;2.45;;;;;;;19.16;68.96;101883.94;5981635;29;20333;-75
2021/07/25 03:53:56;;;;;;;4.60;2.70;;;;;;;19.10;68.61;101881.34;5981620;29;20260;-75
2021/07/25 03:57:00;;;;;;;6.10;2.90;;;;;;;19.16;68.24;101872.03;5979281;29;20228;-75
2021/07/25 04:00:08;;;;;;;3.50;3.20;;;;;;;19.11;68.68;101856.19;5980264;29;20255;-75
2021/07/25 04:03:14;;;;;;;2.90;2.78;;;;;;;19.24;68.28;101868.84;5979556;29;20225;-76
2021/07/25 04:06:19;;;;;;;2.95;2.80;;;;;;;19.22;68.50;101873.81;5980176;29;20559;-75
2021/07/25 04:09:24;;;;;;;4.53;3.10;;;;;;;19.29;68.69;101874.47;5980072;29;20193;-76
2021/07/25 04:12:29;;;;;;;2.97;2.80;;;;;;;19.32;68.02;101873.97;5980972;29;20193;-76
2021/07/25 04:15:33;;;;;;;2.45;2.45;;;;;;;19.37;68.55;101868.56;5979788;29;20239;-76
2021/07/25 04:18:37;;;;;;;2.58;2.50;;;;;;;19.37;68.25;101874.09;5979886;29;20196;-75
2021/07/25 04:21:41;;;;;;;2.47;2.47;;;;;;;19.40;68.39;101870.00;5981015;29;20228;-76
2021/07/25 04:24:47;;;;;;;3.75;2.35;;;;;;;19.44;67.77;101877.53;5980687;29;20193;-76
2021/07/25 04:27:52;;;;;;;2.25;2.13;;;;;;;19.38;67.77;101875.78;5979599;29;20196;-76
2021/07/25 04:30:57;;;;;;;2.88;2.67;;;;;;;19.47;68.46;101876.19;5979551;29;20193;-75
2021/07/25 04:34:02;;;;;;;2.17;2.08;;;;;;;19.48;68.07;101873.19;5979486;29;20193;-75
2021/07/25 04:37:11;;;;;;;2.85;2.20;;;;;;;19.52;68.08;101879.88;5980469;29;20216;-75
2021/07/25 04:40:18;;;;;;;2.30;2.30;;;;;;;19.42;67.44;101857.56;5981010;29;20200;-75
2021/07/25 04:43:23;;;;;;;2.33;2.13;;;;;;;19.60;67.72;101875.88;5980480;29;20287;-75
2021/07/25 04:46:29;;;;;;;2.20;2.10;;;;;;;19.63;67.80;101870.69;5979321;29;20198;-75
2021/07/25 04:49:37;;;;;;;2.60;2.50;;;;;;;19.66;67.79;101884.03;5980189;29;20256;-76
2021/07/25 04:52:43;;;;;;;2.03;2.03;;;;;;;19.69;67.95;101880.75;5979334;29;20502;-75
2021/07/25 04:55:56;;;;;;;3.67;3.20;;;;;;;19.73;67.81;101881.91;5985459;29;20193;-75
2021/07/25 04:59:04;;;;;;;2.40;2.40;;;;;;;19.75;66.87;101887.19;5979161;29;20388;-75
2021/07/25 05:02:10;;;;;;;2.47;2.28;;;;;;;19.86;65.78;101881.56;5978819;29;20209;-75
2021/07/25 05:05:16;;;;;;;2.10;2.10;;;;;;;19.93;64.92;101875.84;5980180;29;20193;-75
2021/07/25 05:08:20;;;;;;;2.47;2.35;;;;;;;19.99;65.13;101881.22;5980158;29;20276;-76
2021/07/25 05:11:32;;;;;;;2.50;2.40;;;;;;;20.00;64.14;101866.25;5978885;29;20395;-76
2021/07/25 05:14:38;;;;;;;2.25;2.15;;;;;;;20.08;64.59;101883.56;5979757;29;20266;-75
2021/07/25 05:17:44;;;;;;;2.50;2.28;;;;;;;20.08;64.90;101889.91;5979770;29;20227;-76
2021/07/25 05:21:02;;;;;;;2.50;2.40;;;;;;;20.19;64.94;101874.28;5980339;29;20231;-76
2021/07/25 05:24:08;;;;;;;2.40;2.30;;;;;;;20.25;64.47;101878.84;5980013;29;20193;-76
2021/07/25 05:27:19;;;;;;;2.60;2.50;;;;;;;20.23;64.57;101876.34;5979663;29;20260;-76
2021/07/25 05:30:25;;;;;;;2.50;2.40;;;;;;;20.34;63.97;101877.28;5979682;29;20197;-76
2021/07/25 05:33:30;;;;;;;2.60;2.58;;;;;;;20.37;63.28;101865.69;5979865;29;20228;-76
2021/07/25 05:36:34;;;;;;;2.67;2.30;;;;;;;20.44;62.94;101877.44;5979838;29;20225;-75
2021/07/25 05:39:38;;;;;;;2.85;2.80;;;;;;;20.52;62.51;101874.19;5979540;29;20288;-76
2021/07/25 05:42:45;;;;;;;2.83;2.63;;;;;;;20.58;62.39;101864.88;5979570;29;20307;-75
2021/07/25 05:45:50;;;;;;;2.45;2.45;;;;;;;20.69;62.34;101869.44;5979435;29;20193;-75
2021/07/25 05:48:55;;;;;;;2.72;2.55;;;;;;;20.80;61.89;101860.13;5979865;29;20311;-76
2021/07/25 05:51:59;;;;;;;2.88;2.70;;;;;;;20.94;62.78;101855.84;5979437;29;20256;-76
2021/07/25 05:55:04;;;;;;;2.33;2.22;;;;;;;21.01;61.37;101867.56;5982145;29;20197;-75
2021/07/25 05:58:11;;;;;;;2.58;2.47;;;;;;;21.19;61.02;101875.56;5983722;29;20342;-76
2021/07/25 06:01:15;;;;;;;2.60;2.60;;;;;;;21.39;61.78;101876.88;5985345;29;20260;-76
2021/07/25 06:04:20;;;;;;;2.75;2.65;;;;;;;21.57;62.38;101877.28;5990790;29;20232;-75
2021/07/25 06:07:24;;;;;;;2.65;2.65;;;;;;;21.63;60.54;101876.25;5982274;29;20303;-75
2021/07/25 06:10:30;;;;;;;2.85;2.67;;;;;;;21.83;61.31;101881.09;5983674;29;20266;-75
2021/07/25 06:13:35;;;;;;;2.70;2.60;;;;;;;21.93;62.23;101869.28;5982514;29;20197;-76
2021/07/25 06:16:43;;;;;;;3.00;2.85;;;;;;;22.10;60.55;101865.22;5983607;29;20333;-77
2021/07/25 06:19:47;;;;;;;2.40;2.40;;;;;;;22.24;60.76;101876.69;5983423;29;20200;-76
2021/07/25 06:22:52;;;;;;;3.03;2.80;;;;;;;22.38;60.57;101870.38;5983569;29;20266;-77
2021/07/25 06:25:57;;;;;;;3.00;2.72;;;;;;;22.52;60.66;101883.78;5982788;29;20528;-76
2021/07/25 06:29:02;;;;;;;3.13;3.03;;;;;;;22.64;59.27;101878.88;5981356;29;20294;-75
2021/07/25 06:32:08;;;;;;;2.88;2.78;;;;;;;22.81;58.12;101882.25;5982905;29;20215;-75
2021/07/25 06:35:13;;;;;;;3.47;3.08;;;;;;;22.93;57.13;101880.09;5982104;29;20330;-75
2021/07/25 06:38:18;;;;;;;2.95;2.95;;;;;;;23.03;55.79;101868.97;5982023;29;20220;-76
2021/07/25 06:41:23;;;;;;;3.42;3.22;;;;;;;23.19;53.88;101879.00;5982813;29;20227;-76
2021/07/25 06:44:28;;;;;;;3.08;2.97;;;;;;;23.35;54.22;101877.94;5983163;29;20200;-75
2021/07/25 06:47:33;;;;;;;2.90;2.80;;;;;;;23.43;51.80;101880.19;5982250;29;20220;-75
2021/07/25 06:50:39;;;;;;;3.50;3.30;;;;;;;23.54;50.53;101876.31;5982537;29;20200;-76
2021/07/25 06:53:43;;;;;;;3.10;3.00;;;;;;;23.66;50.75;101874.06;5982839;29;20199;-75
2021/07/25 06:56:47;;;;;;;3.60;3.40;;;;;;;23.80;50.17;101882.72;5982360;29;20193;-75
2021/07/25 06:59:53;;;;;;;6.60;3.70;;;;;;;23.89;48.95;101872.66;5982626;29;20242;-75
2021/07/25 07:02:58;;;;;;;3.78;3.65;;;;;;;23.93;47.31;101872.94;5981827;29;20237;-75
2021/07/25 07:06:06;;;;;;;3.42;3.33;;;;;;;24.07;46.00;101876.81;5981165;29;20250;-75
2021/07/25 07:09:13;;;;;;;3.85;3.70;;;;;;;24.16;45.91;101872.38;5982091;29;20197;-75
2021/07/25 07:12:17;;;;;;;4.10;3.80;;;;;;;24.20;45.49;101876.25;5984749;29;20193;-76
2021/07/25 07:15:24;;;;;;;3.85;3.63;;;;;;;24.35;46.00;101876.19;5984901;29;20216;-76
2021/07/25 07:18:28;;;;;;;3.70;3.50;;;;;;;24.43;46.04;101883.97;5982357;29;20247;-76
2021/07/25 07:21:32;;;;;;;3.50;3.40;;;;;;;24.52;45.04;101879.50;5983390;29;20197;-76
2021/07/25 07:24:36;;;;;;;3.30;3.20;;;;;;;24.60;43.16;101878.88;5982328;29;20200;-75
2021/07/25 07:27:40;;;;;;;3.50;3.35;;;;;;;24.74;44.09;101885.53;5981885;29;20260;-76
2021/07/25 07:30:47;;;;;;;3.70;3.53;;;;;;;24.80;42.48;101884.44;5981547;29;20200;-76
2021/07/25 07:33:51;;;;;;;3.83;3.72;;;;;;;24.79;42.89;101890.28;5981849;29;20218;-76
2021/07/25 07:36:55;;;;;;;5.68;3.95;;;;;;;24.70;41.85;101883.59;5980482;29;20230;-76
2021/07/25 07:39:59;;;;;;;3.65;3.45;;;;;;;24.80;42.90;101873.28;5980250;29;20280;-76
2021/07/25 07:43:05;;;;;;;4.15;3.70;;;;;;;24.80;42.27;101883.59;5980999;29;20196;-76
2021/07/25 07:46:14;;;;;;;3.88;3.58;;;;;;;24.94;42.21;101879.03;5980137;29;20261;-76
2021/07/25 07:49:18;;;;;;;4.05;3.80;;;;;;;25.02;42.13;101874.81;5981096;29;20203;-76
2021/07/25 07:52:22;;;;;;;3.63;3.42;;;;;;;25.08;41.74;101876.44;5981019;29;20234;-76
2021/07/25 07:55:27;;;;;;;3.83;3.63;;;;;;;25.21;41.57;101875.81;5980115;29;20543;-76
2021/07/25 07:58:31;;;;;;;4.32;3.45;;;;;;;25.25;41.55;101868.50;5981186;29;20224;-76
2021/07/25 08:01:37;;;;;;;4.07;3.75;;;;;;;25.33;40.88;101876.28;5980895;29;20196;-76
2021/07/25 08:04:42;;;;;;;4.70;4.03;;;;;;;25.32;41.76;101875.44;5980917;29;20412;-76
2021/07/25 08:07:46;;;;;;;3.38;3.28;;;;;;;25.40;40.86;101882.34;5979685;29;20480;-76
2021/07/25 08:10:51;;;;;;;3.85;3.63;;;;;;;25.47;41.50;101871.75;5980724;29;20273;-76
2021/07/25 08:13:55;;;;;;;4.05;3.85;;;;;;;25.47;41.19;101878.13;5979196;29;20208;-76
2021/07/25 08:17:01;;;;;;;4.05;3.67;;;;;;;25.47;40.74;101882.91;5978787;29;20552;-76
2021/07/25 08:20:07;;;;;;;5.50;3.63;;;;;;;25.39;40.33;101872.31;5979361;29;20227;-76
2021/07/25 08:23:12;;;;;;;3.80;3.70;;;;;;;25.44;40.03;101878.72;5985798;29;20193;-76
2021/07/25 08:26:17;;;;;;;3.58;3.45;;;;;;;25.53;40.77;101881.72;5979340;29;20256;-76
2021/07/25 08:29:21;;;;;;;3.85;3.65;;;;;;;25.60;40.25;101871.06;5980004;29;20200;-76
2021/07/25 08:32:26;;;;;;;4.03;3.83;;;;;;;25.65;40.41;101873.81;5980130;29;20268;-76
2021/07/25 08:35:31;;;;;;;3.92;3.80;;;;;;;25.66;40.74;101869.03;5980266;29;20225;-76
2021/07/25 08:38:35;;;;;;;4.28;4.07;;;;;;;25.65;40.38;101879.41;5980220;29;20221;-75
2021/07/25 08:42:06;;;;;;;5.88;4.18;;;;;;;25.66;38.56;101881.06;5981312;29;20201;-75
2021/07/25 08:45:11;;;;;;;3.90;3.70;;;;;;;25.66;38.83;101875.47;5976163;29;20257;-75
2021/07/25 08:48:18;;;;;;;4.18;3.97;;;;;;;25.65;38.69;101881.38;5980033;29;20193;-76
2021/07/25 08:51:25;;;;;;;4.28;4.05;;;;;;;25.62;39.02;101880.00;5978776;29;20504;-76
2021/07/25 08:54:30;;;;;;;4.57;4.20;;;;;;;25.61;39.55;101881.09;5980051;29;20256;-77
2021/07/25 08:57:38;;;;;;;4.20;4.00;;;;;;;25.62;39.68;101885.59;5979392;29;20193;-76
2021/07/25 09:00:43;;;;;;;4.65;4.13;;;;;;;25.68;39.34;101889.97;5978755;29;20268;-76
2021/07/25 09:03:50;;;;;;;4.03;3.72;;;;;;;25.66;39.10;101889.44;5979149;29;20263;-76
2021/07/25 09:06:56;;;;;;;4.05;3.75;;;;;;;25.67;39.55;101882.75;5979969;29;20193;-76
2021/07/25 09:10:06;;;;;;;4.15;3.97;;;;;;;25.72;39.78;101879.06;5978496;29;20371;-77
2021/07/25 09:13:11;;;;;;;4.32;4.03;;;;;;;25.74;39.26;101880.44;5979268;29;20204;-76
2021/07/25 09:16:16;;;;;;;4.65;4.32;;;;;;;25.71;39.25;101872.63;5978931;29;20193;-76
2021/07/25 09:19:22;;;;;;;4.40;4.10;;;;;;;25.63;39.49;101864.88;5978329;29;20243;-76
2021/07/25 09:22:26;;;;;;;4.25;3.80;;;;;;;25.40;38.57;101866.44;5979656;29;20202;-76
2021/07/25 09:25:36;;;;;;;4.88;4.43;;;;;;;25.45;39.25;101879.53;5979572;29;20224;-76
2021/07/25 09:28:40;;;;;;;3.63;3.53;;;;;;;25.57;40.13;101882.00;5979087;29;20356;-76
2021/07/25 09:31:45;;;;;;;4.35;4.15;;;;;;;25.62;40.21;101880.00;5989589;29;20193;-76
2021/07/25 09:34:50;;;;;;;3.83;3.63;;;;;;;25.56;38.41;101869.97;5983413;29;20193;-76
2021/07/25 09:37:56;;;;;;;5.32;4.63;;;;;;;25.57;39.18;101877.25;5984426;29;20225;-76
2021/07/25 09:41:01;;;;;;;4.10;3.80;;;;;;;25.65;39.61;101873.81;5983827;29;20217;-76
2021/07/25 09:44:12;;;;;;;3.80;3.70;;;;;;;25.66;39.88;101881.06;5983054;29;20511;-76
2021/07/25 09:47:30;;;;;;;4.38;4.00;;;;;;;25.73;39.65;101870.38;5984034;29;20199;-76
2021/07/25 09:50:36;;;;;;;4.13;3.85;;;;;;;25.81;39.04;101866.13;5983321;29;20197;-76
2021/07/25 09:53:44;;;;;;;4.40;4.20;;;;;;;25.80;38.44;101870.03;5982853;29;20259;-77
2021/07/25 09:56:48;;;;;;;3.90;3.70;;;;;;;25.84;38.29;101877.53;5983758;29;20200;-77
2021/07/25 09:59:52;;;;;;;4.32;4.05;;;;;;;25.84;38.01;101869.16;5983654;29;20216;-75
2021/07/25 10:02:57;;;;;;;4.43;4.13;;;;;;;25.71;37.86;101877.38;5984913;29;20304;-75
2021/07/25 10:06:22;;;;;;;4.30;4.00;;;;;;;25.77;37.86;101865.03;5983369;29;20200;-75
2021/07/25 10:09:27;;;;;;;4.63;4.38;;;;;;;25.81;37.26;101866.94;5983549;29;20229;-76
2021/07/25 10:12:35;;;;;;;3.67;3.58;;;;;;;25.82;37.83;101868.63;5982099;29;20215;-75
2021/07/25 10:15:42;;;;;;;3.88;3.67;;;;;;;25.86;37.87;101858.50;5982871;29;20257;-74
2021/07/25 10:18:49;;;;;;;3.60;3.50;;;;;;;25.89;38.19;101863.50;5982043;29;20477;-76
2021/07/25 10:21:56;;;;;;;3.83;3.72;;;;;;;25.98;38.88;101861.75;5983201;29;20227;-76
2021/07/25 10:25:05;;;;;;;4.55;4.15;;;;;;;26.06;38.92;101868.66;5983108;29;20294;-76
2021/07/25 10:28:18;;;;;;;3.88;3.75;;;;;;;26.14;38.55;101861.63;5983105;29;20192;-76
2021/07/25 10:31:23;;;;;;;3.95;3.78;;;;;;;26.11;38.12;101866.66;5983112;29;20197;-75
2021/07/25 10:34:31;;;;;;;4.20;3.80;;;;;;;26.16;37.60;101863.00;5982945;29;20219;-76
2021/07/25 10:37:38;;;;;;;4.03;3.90;;;;;;;26.16;36.83;101856.56;5982274;29;20220;-76
2021/07/25 10:40:46;;;;;;;4.00;3.90;;;;;;;26.28;36.72;101865.38;5986269;29;20292;-74
2021/07/25 10:43:51;;;;;;;4.00;3.70;;;;;;;26.32;37.01;101860.88;5982645;29;20193;-75
2021/07/25 10:47:19;;;;;;;3.67;3.58;;;;;;;26.25;37.33;101855.59;5982717;29;20193;-76
2021/07/25 10:50:24;;;;;;;3.60;3.42;;;;;;;26.30;36.77;101874.28;5981358;29;20201;-75
2021/07/25 10:53:30;;;;;;;3.92;3.60;;;;;;;26.35;36.78;101866.69;5981570;29;20401;-76
2021/07/25 10:56:59;;;;;;;3.88;3.67;;;;;;;26.43;37.12;101862.38;5981441;29;20318;-76
2021/07/25 11:00:04;;;;;;;3.50;3.30;;;;;;;26.48;36.80;101876.31;5981392;29;20546;-76
2021/07/25 11:03:44;;;;;;;3.28;3.03;;;;;;;26.48;37.08;101865.13;5982013;29;20251;-76
2021/07/25 11:07:32;;;;;;;3.08;2.97;;;;;;;26.40;37.21;101860.22;5981213;29;20503;-76
2021/07/25 11:10:37;;;;;;;5.03;3.53;;;;;;;26.47;37.32;101855.06;5981055;29;20201;-75
2021/07/25 11:13:42;;;;;;;4.72;3.80;;;;;;;26.59;37.37;101861.06;5982012;29;20220;-76
2021/07/25 11:16:48;;;;;;;3.30;3.20;;;;;;;26.67;37.47;101874.41;5982330;29;20201;-75
2021/07/25 11:19:54;;;;;;;3.47;3.38;;;;;;;26.62;39.25;101866.06;5981830;29;20335;-75
2021/07/25 11:22:59;;;;;;;3.33;3.22;;;;;;;26.70;39.49;101868.22;5983135;29;20193;-76
2021/07/25 11:26:39;;;;;;;3.58;3.47;;;;;;;26.83;39.79;101867.50;5982341;29;20200;-76
2021/07/25 11:29:44;;;;;;;3.75;3.47;;;;;;;26.78;40.23;101875.16;5979305;29;20252;-76
2021/07/25 11:32:48;;;;;;;3.50;3.20;;;;;;;26.74;40.84;101872.06;5980553;29;20193;-76
2021/07/25 11:35:54;;;;;;;2.92;2.83;;;;;;;26.66;41.00;101883.91;5980428;29;20260;-76
2021/07/25 11:39:00;;;;;;;3.20;3.08;;;;;;;26.69;41.14;101878.56;5981418;29;20203;-75
2021/07/25 11:42:07;;;;;;;4.20;2.97;;;;;;;26.80;41.10;101868.09;5981374;29;20265;-75
2021/07/25 11:45:13;;;;;;;2.63;2.63;;;;;;;26.82;41.68;101879.00;5980470;29;20194;-75
2021/07/25 11:48:21;;;;;;;2.70;2.70;;;;;;;26.85;41.64;101875.59;5983390;29;20194;-75
2021/07/25 11:51:25;;;;;;;2.70;2.70;;;;;;;27.02;41.58;101873.94;5984908;29;20197;-75
2021/07/25 11:54:31;;;;;;;4.38;2.85;;;;;;;27.08;41.16;101872.75;5981282;29;20260;-75
2021/07/25 11:57:37;;;;;;;2.85;2.75;;;;;;;27.12;41.74;101871.00;5980022;29;20455;-75
2021/07/25 12:00:41;;;;;;;2.70;2.60;;;;;;;27.17;42.20;101862.50;5980743;29;20284;-75
2021/07/25 12:03:46;;;;;;;2.55;2.53;;;;;;;27.20;41.62;101869.47;5978942;29;20237;-75
2021/07/25 12:06:58;;;;;;;2.92;2.80;;;;;;;27.16;41.11;101872.06;5980348;29;20242;-75
2021/07/25 12:10:05;;;;;;;3.30;3.00;;;;;;;27.10;41.02;101872.44;5979725;29;20201;-75
2021/07/25 12:13:13;;;;;;;2.53;2.53;;;;;;;27.15;40.82;101873.19;5980111;29;20200;-75
2021/07/25 12:16:19;;;;;;;3.00;2.90;;;;;;;27.15;40.27;101864.78;5980407;29;20272;-74
2021/07/25 12:19:24;;;;;;;3.03;2.92;;;;;;;27.19;39.98;101868.66;5979841;29;20197;-76
2021/07/25 12:22:28;;;;;;;2.83;2.80;;;;;;;27.15;39.75;101870.38;5980192;29;20291;-75
2021/07/25 12:25:34;;;;;;;3.00;2.85;;;;;;;27.05;40.06;101876.16;5980145;29;20208;-75
2021/07/25 12:28:40;;;;;;;3.08;2.88;;;;;;;27.26;40.16;101874.72;5979078;29;20507;-75
2021/07/25 12:31:44;;;;;;;3.03;2.80;;;;;;;27.28;39.74;101869.63;5979031;29;20265;-75
2021/07/25 12:34:48;;;;;;;3.13;2.85;;;;;;;27.25;39.47;101875.84;5979059;29;20201;-75
2021/07/25 12:37:55;;;;;;;3.40;2.95;;;;;;;27.34;40.14;101874.03;5980339;29;20193;-76
2021/07/25 12:41:03;;;;;;;4.45;2.90;;;;;;;27.39;38.74;101880.69;5980095;29;20288;-76
2021/07/25 12:44:26;;;;;;;3.17;3.08;;;;;;;27.31;38.83;101888.63;5982174;29;20272;-74
2021/07/25 12:47:37;;;;;;;7.95;3.08;;;;;;;27.41;39.13;101878.44;5979790;29;20496;-76
2021/07/25 12:50:50;;;;;;;2.70;2.65;;;;;;;27.35;37.86;101886.88;5979566;29;20336;-76
2021/07/25 12:54:00;;;;;;;3.05;2.95;;;;;;;27.34;38.32;101882.44;5977843;29;20314;-75
2021/07/25 12:57:04;;;;;;;3.55;3.25;;;;;;;27.39;38.70;101887.16;5981034;29;20256;-75
2021/07/25 13:00:12;;;;;;;3.50;3.20;;;;;;;27.42;38.20;101885.72;5984686;29;20259;-75
2021/07/25 13:06:42;;;;;;;9.75;9.02;;;;;;;27.42;38.06;101885.72;5978726;29;20508;-76
2021/07/25 13:09:46;;;;;;;4.05;3.95;;;;;;;27.39;38.48;101892.75;5977866;29;20215;-75
2021/07/25 13:12:50;;;;;;;8.68;7.97;;;;;;;27.40;38.80;101888.00;5979626;29;20197;-75
2021/07/25 13:15:56;;;;;;;4.80;4.60;;;;;;;27.34;38.29;101874.03;5979022;29;20250;-75
2021/07/25 13:19:01;;;;;;;3.63;3.45;;;;;;;27.43;38.14;101881.75;5979829;29;20212;-75
2021/07/25 13:22:05;;;;;;;3.53;3.35;;;;;;;27.50;38.42;101885.84;5979639;29;20227;-75
2021/07/25 13:25:10;;;;;;;3.05;2.85;;;;;;;27.51;38.29;101879.09;5979783;29;20334;-75
2021/07/25 13:28:14;;;;;;;3.85;3.25;;;;;;;27.66;38.58;101880.81;5979549;29;20201;-75
2021/07/25 13:31:21;;;;;;;3.28;3.17;;;;;;;27.74;38.10;101882.91;5978475;29;20484;-75
2021/07/25 13:34:25;;;;;;;3.03;2.92;;;;;;;27.82;37.94;101873.78;5978333;29;20390;-75
2021/07/25 13:37:29;;;;;;;2.83;2.63;;;;;;;27.87;37.65;101887.72;5978632;29;20511;-76
2021/07/25 13:40:33;;;;;;;3.45;2.90;;;;;;;27.72;37.86;101885.19;5979438;29;20193;-75
2021/07/25 13:43:39;;;;;;;2.90;2.90;;;;;;;28.29;37.51;101895.13;5979249;29;20331;-76
2021/07/25 13:46:55;;;;;;;2.50;2.45;;;;;;;28.85;36.05;101892.00;5979571;29;20200;-76
2021/07/25 13:50:00;;;;;;;2.80;2.53;;;;;;;29.46;35.44;101880.19;5978524;29;20485;-75
2021/07/25 13:53:05;;;;;;;3.08;2.88;;;;;;;29.32;35.62;101885.91;5978425;29;20428;-76
2021/07/25 13:56:12;;;;;;;3.03;2.83;;;;;;;28.81;36.22;101897.44;5979127;29;20208;-75
2021/07/25 13:59:16;;;;;;;2.83;2.70;;;;;;;28.58;37.04;101890.03;5977539;29;20500;-75
2021/07/25 14:02:22;;;;;;;4.22;3.60;;;;;;;28.39;37.41;101889.28;5980088;29;20240;-75
2021/07/25 14:05:30;;;;;;;3.75;3.45;;;;;;;28.26;37.62;101890.94;5979980;29;20197;-75
2021/07/25 14:08:35;;;;;;;3.17;2.92;;;;;;;28.25;37.48;101894.88;5985719;29;20193;-75
2021/07/25 14:11:40;;;;;;;3.22;2.78;;;;;;;28.25;37.45;101894.06;5979231;29;20205;-75
2021/07/25 14:14:44;;;;;;;2.83;2.63;;;;;;;28.10;37.46;101903.59;5978692;29;20540;-75
2021/07/25 14:17:51;;;;;;;3.55;3.25;;;;;;;28.11;38.56;101899.66;5982980;29;20193;-75
2021/07/25 14:20:56;;;;;;;2.85;2.65;;;;;;;27.90;37.21;101904.78;5982409;29;20302;-76
2021/07/25 14:24:00;;;;;;;3.13;3.03;;;;;;;28.04;37.82;101892.78;5982074;29;20531;-76
2021/07/25 14:27:04;;;;;;;3.35;3.10;;;;;;;28.06;37.58;101896.97;5983169;29;20197;-76
2021/07/25 14:30:12;;;;;;;3.60;3.30;;;;;;;27.83;37.84;101906.31;5982460;29;20193;-76